sensor_id;sensor_type;location;lat;lon;timestamp;pressure;altitude;pressure_sealevel;temperature;humidity
56807;BME280;42687;42.524;12.052;2022-08-18T00:00:28;96463.78;;;20.45;83.29
56807;BME280;42687;42.524;12.052;2022-08-18T00:02:54;96459.38;;;20.36;84.10
56807;BME280;42687;42.524;12.052;2022-08-18T00:05:23;96461.03;;;20.28;84.27
56807;BME280;42687;42.524;12.052;2022-08-18T00:07:48;96473.19;;;20.23;82.48
56807;BME280;42687;42.524;12.052;2022-08-18T00:10:14;96456.47;;;20.21;82.36
56807;BME280;42687;42.524;12.052;2022-08-18T00:12:40;96462.78;;;20.20;84.42
56807;BME280;42687;42.524;12.052;2022-08-18T00:15:08;96447.94;;;20.17;85.07
56807;BME280;42687;42.524;12.052;2022-08-18T00:17:34;96449.63;;;20.18;85.70
56807;BME280;42687;42.524;12.052;2022-08-18T00:20:00;96451.47;;;20.17;84.11
56807;BME280;42687;42.524;12.052;2022-08-18T00:22:26;96435.28;;;20.19;85.25
56807;BME280;42687;42.524;12.052;2022-08-18T00:24:53;96433.44;;;20.20;85.46
56807;BME280;42687;42.524;12.052;2022-08-18T00:27:20;96420.78;;;20.22;85.31
56807;BME280;42687;42.524;12.052;2022-08-18T00:29:46;96407.31;;;20.31;84.46
56807;BME280;42687;42.524;12.052;2022-08-18T00:32:22;96411.06;;;20.47;82.16
56807;BME280;42687;42.524;12.052;2022-08-18T00:34:48;96409.31;;;20.64;79.57
56807;BME280;42687;42.524;12.052;2022-08-18T00:37:13;96424.06;;;20.76;73.76
56807;BME280;42687;42.524;12.052;2022-08-18T00:39:39;96416.75;;;20.78;72.94
56807;BME280;42687;42.524;12.052;2022-08-18T00:42:15;96416.22;;;20.75;76.00
56807;BME280;42687;42.524;12.052;2022-08-18T00:44:41;96420.22;;;20.71;78.16
56807;BME280;42687;42.524;12.052;2022-08-18T00:47:06;96421.34;;;20.68;77.42
56807;BME280;42687;42.524;12.052;2022-08-18T00:49:32;96429.00;;;20.63;73.80
56807;BME280;42687;42.524;12.052;2022-08-18T00:51:57;96430.97;;;20.61;73.67
56807;BME280;42687;42.524;12.052;2022-08-18T00:54:26;96436.03;;;20.64;75.67
56807;BME280;42687;42.524;12.052;2022-08-18T00:56:57;96439.34;;;20.66;74.06
56807;BME280;42687;42.524;12.052;2022-08-18T01:01:52;96437.91;;;20.72;76.34
56807;BME280;42687;42.524;12.052;2022-08-18T01:04:27;96419.06;;;20.73;76.79
56807;BME280;42687;42.524;12.052;2022-08-18T01:06:57;96418.75;;;20.85;78.88
56807;BME280;42687;42.524;12.052;2022-08-18T01:09:24;96432.47;;;20.98;78.04
56807;BME280;42687;42.524;12.052;2022-08-18T01:11:50;96484.13;;;21.07;77.28
56807;BME280;42687;42.524;12.052;2022-08-18T01:14:16;96493.84;;;21.08;78.08
56807;BME280;42687;42.524;12.052;2022-08-18T01:16:45;96474.28;;;21.07;66.22
56807;BME280;42687;42.524;12.052;2022-08-18T01:19:29;96430.88;;;21.30;64.56
56807;BME280;42687;42.524;12.052;2022-08-18T01:22:35;96494.34;;;21.62;72.51
56807;BME280;42687;42.524;12.052;2022-08-18T01:24:59;96535.34;;;21.71;65.52
56807;BME280;42687;42.524;12.052;2022-08-18T01:27:43;96500.53;;;21.71;66.72
56807;BME280;42687;42.524;12.052;2022-08-18T01:30:10;96490.84;;;21.70;74.01
56807;BME280;42687;42.524;12.052;2022-08-18T01:32:37;96422.38;;;21.26;71.79
56807;BME280;42687;42.524;12.052;2022-08-18T01:35:03;96437.75;;;21.32;66.80
56807;BME280;42687;42.524;12.052;2022-08-18T01:37:29;96501.72;;;21.69;71.14
56807;BME280;42687;42.524;12.052;2022-08-18T01:39:54;96469.25;;;21.72;73.54
56807;BME280;42687;42.524;12.052;2022-08-18T01:42:20;96476.09;;;21.91;65.29
56807;BME280;42687;42.524;12.052;2022-08-18T01:44:46;96464.41;;;22.16;64.00
56807;BME280;42687;42.524;12.052;2022-08-18T01:47:12;96463.72;;;22.39;64.43
56807;BME280;42687;42.524;12.052;2022-08-18T01:49:38;96470.72;;;22.48;63.27
56807;BME280;42687;42.524;12.052;2022-08-18T01:52:07;96450.44;;;22.54;65.21
56807;BME280;42687;42.524;12.052;2022-08-18T01:54:33;96392.41;;;22.22;62.64
56807;BME280;42687;42.524;12.052;2022-08-18T01:56:59;96420.16;;;22.54;63.35
56807;BME280;42687;42.524;12.052;2022-08-18T01:59:24;96426.63;;;22.68;63.69
56807;BME280;42687;42.524;12.052;2022-08-18T02:01:50;96428.56;;;22.82;64.62
56807;BME280;42687;42.524;12.052;2022-08-18T02:04:23;96398.38;;;22.88;61.89
56807;BME280;42687;42.524;12.052;2022-08-18T02:06:49;96391.97;;;22.97;61.73
56807;BME280;42687;42.524;12.052;2022-08-18T02:09:15;96389.69;;;23.18;62.41
56807;BME280;42687;42.524;12.052;2022-08-18T02:11:40;96378.22;;;23.32;62.77
56807;BME280;42687;42.524;12.052;2022-08-18T02:14:06;96374.81;;;23.38;62.73
56807;BME280;42687;42.524;12.052;2022-08-18T02:16:31;96382.69;;;23.40;63.11
56807;BME280;42687;42.524;12.052;2022-08-18T02:18:57;96365.72;;;23.39;63.33
56807;BME280;42687;42.524;12.052;2022-08-18T02:21:23;96331.03;;;23.38;65.25
56807;BME280;42687;42.524;12.052;2022-08-18T02:23:48;96341.94;;;23.36;65.87
56807;BME280;42687;42.524;12.052;2022-08-18T02:26:15;96329.44;;;23.28;65.99
56807;BME280;42687;42.524;12.052;2022-08-18T02:28:41;96313.22;;;23.22;63.44
56807;BME280;42687;42.524;12.052;2022-08-18T02:31:08;96287.78;;;23.18;65.68
56807;BME280;42687;42.524;12.052;2022-08-18T02:33:34;96283.59;;;23.15;68.46
56807;BME280;42687;42.524;12.052;2022-08-18T02:36:00;96258.31;;;23.09;64.79
56807;BME280;42687;42.524;12.052;2022-08-18T02:38:26;96243.94;;;23.02;65.79
56807;BME280;42687;42.524;12.052;2022-08-18T02:40:56;96258.91;;;22.96;65.74
56807;BME280;42687;42.524;12.052;2022-08-18T02:43:21;96272.56;;;22.87;65.98
56807;BME280;42687;42.524;12.052;2022-08-18T02:45:47;96277.69;;;22.73;64.93
56807;BME280;42687;42.524;12.052;2022-08-18T02:48:12;96371.38;;;22.58;67.90
56807;BME280;42687;42.524;12.052;2022-08-18T02:50:38;96382.34;;;22.40;66.48
56807;BME280;42687;42.524;12.052;2022-08-18T02:53:13;96345.88;;;22.23;65.37
56807;BME280;42687;42.524;12.052;2022-08-18T02:55:46;96338.56;;;22.08;67.83
56807;BME280;42687;42.524;12.052;2022-08-18T02:58:11;96351.31;;;21.98;68.95
56807;BME280;42687;42.524;12.052;2022-08-18T03:00:37;96362.03;;;21.90;65.88
56807;BME280;42687;42.524;12.052;2022-08-18T03:03:03;96367.25;;;21.83;68.35
56807;BME280;42687;42.524;12.052;2022-08-18T03:05:28;96385.13;;;21.74;67.50
56807;BME280;42687;42.524;12.052;2022-08-18T03:07:54;96390.16;;;21.69;66.03
56807;BME280;42687;42.524;12.052;2022-08-18T03:10:20;96340.63;;;21.73;66.38
56807;BME280;42687;42.524;12.052;2022-08-18T03:12:45;96146.56;;;21.86;67.89
56807;BME280;42687;42.524;12.052;2022-08-18T03:15:11;96132.63;;;21.98;70.51
56807;BME280;42687;42.524;12.052;2022-08-18T03:17:37;96138.53;;;21.94;71.20
56807;BME280;42687;42.524;12.052;2022-08-18T03:20:03;96188.88;;;21.90;70.88
56807;BME280;42687;42.524;12.052;2022-08-18T03:22:28;96214.50;;;21.85;70.88
56807;BME280;42687;42.524;12.052;2022-08-18T03:24:54;96187.59;;;21.78;71.23
56807;BME280;42687;42.524;12.052;2022-08-18T03:27:19;96146.16;;;21.74;71.68
56807;BME280;42687;42.524;12.052;2022-08-18T03:29:45;96190.28;;;21.70;72.09
56807;BME280;42687;42.524;12.052;2022-08-18T03:32:10;96137.97;;;21.67;70.19
56807;BME280;42687;42.524;12.052;2022-08-18T03:34:36;96118.03;;;21.78;69.83
56807;BME280;42687;42.524;12.052;2022-08-18T03:37:01;96091.34;;;21.93;68.80
56807;BME280;42687;42.524;12.052;2022-08-18T03:39:27;96064.28;;;22.11;67.34
56807;BME280;42687;42.524;12.052;2022-08-18T03:41:53;96117.41;;;22.22;67.38
56807;BME280;42687;42.524;12.052;2022-08-18T03:44:18;96100.28;;;22.31;67.36
56807;BME280;42687;42.524;12.052;2022-08-18T03:46:44;96071.88;;;22.22;66.24
56807;BME280;42687;42.524;12.052;2022-08-18T03:49:10;96125.13;;;22.48;65.86
56807;BME280;42687;42.524;12.052;2022-08-18T03:51:36;96092.72;;;22.58;65.79
56807;BME280;42687;42.524;12.052;2022-08-18T03:54:02;96100.16;;;22.71;63.97
56807;BME280;42687;42.524;12.052;2022-08-18T03:56:33;96113.38;;;22.88;65.44
56807;BME280;42687;42.524;12.052;2022-08-18T03:59:00;96114.66;;;23.15;64.26
56807;BME280;42687;42.524;12.052;2022-08-18T04:01:28;96130.69;;;23.38;62.94
56807;BME280;42687;42.524;12.052;2022-08-18T04:04:00;96134.81;;;23.56;63.68
56807;BME280;42687;42.524;12.052;2022-08-18T04:06:27;96146.28;;;23.79;60.44
56807;BME280;42687;42.524;12.052;2022-08-18T04:08:54;96148.81;;;24.18;62.22
56807;BME280;42687;42.524;12.052;2022-08-18T04:11:20;96149.22;;;24.58;61.08
56807;BME280;42687;42.524;12.052;2022-08-18T04:13:46;96141.88;;;24.88;60.86
56807;BME280;42687;42.524;12.052;2022-08-18T04:16:11;96131.13;;;24.88;57.20
56807;BME280;42687;42.524;12.052;2022-08-18T04:18:37;96133.81;;;24.88;56.17
56807;BME280;42687;42.524;12.052;2022-08-18T04:21:03;96120.16;;;24.68;59.11
56807;BME280;42687;42.524;12.052;2022-08-18T04:23:35;96136.53;;;24.52;60.73
56807;BME280;42687;42.524;12.052;2022-08-18T04:26:02;96139.88;;;24.32;59.13
56807;BME280;42687;42.524;12.052;2022-08-18T04:28:28;96152.88;;;24.13;60.41
56807;BME280;42687;42.524;12.052;2022-08-18T04:30:54;96134.25;;;23.90;59.31
56807;BME280;42687;42.524;12.052;2022-08-18T04:33:24;96121.19;;;23.72;60.75
56807;BME280;42687;42.524;12.052;2022-08-18T04:35:50;96107.41;;;23.60;59.94
56807;BME280;42687;42.524;12.052;2022-08-18T04:38:15;96105.13;;;23.57;59.25
56807;BME280;42687;42.524;12.052;2022-08-18T04:40:41;96096.59;;;23.54;61.37
56807;BME280;42687;42.524;12.052;2022-08-18T04:43:07;96098.28;;;23.55;60.94
56807;BME280;42687;42.524;12.052;2022-08-18T04:45:40;96091.22;;;23.54;60.88
56807;BME280;42687;42.524;12.052;2022-08-18T04:48:06;96089.03;;;23.57;61.07
56807;BME280;42687;42.524;12.052;2022-08-18T04:50:31;96083.06;;;23.62;58.25
56807;BME280;42687;42.524;12.052;2022-08-18T04:52:57;96081.50;;;23.68;60.35
56807;BME280;42687;42.524;12.052;2022-08-18T04:55:51;96094.34;;;23.72;61.23
56807;BME280;42687;42.524;12.052;2022-08-18T04:58:20;96041.50;;;23.36;61.30
56807;BME280;42687;42.524;12.052;2022-08-18T05:00:46;96113.59;;;23.76;61.62
56807;BME280;42687;42.524;12.052;2022-08-18T05:03:20;96112.13;;;23.73;61.85
56807;BME280;42687;42.524;12.052;2022-08-18T05:05:54;96109.81;;;23.70;61.52
56807;BME280;42687;42.524;12.052;2022-08-18T05:08:21;96131.66;;;23.67;61.77
56807;BME280;42687;42.524;12.052;2022-08-18T05:10:51;96131.03;;;23.65;61.72
56807;BME280;42687;42.524;12.052;2022-08-18T05:13:17;96132.69;;;23.66;62.01
56807;BME280;42687;42.524;12.052;2022-08-18T05:15:42;96145.06;;;23.67;61.57
56807;BME280;42687;42.524;12.052;2022-08-18T05:18:08;96147.03;;;23.73;59.62
56807;BME280;42687;42.524;12.052;2022-08-18T05:20:35;96148.72;;;24.11;59.42
56807;BME280;42687;42.524;12.052;2022-08-18T05:23:01;96145.06;;;24.55;59.36
56807;BME280;42687;42.524;12.052;2022-08-18T05:25:26;96135.28;;;24.91;59.16
56807;BME280;42687;42.524;12.052;2022-08-18T05:27:53;96115.53;;;25.12;58.62
56807;BME280;42687;42.524;12.052;2022-08-18T05:30:19;96123.28;;;25.22;58.08
56807;BME280;42687;42.524;12.052;2022-08-18T05:32:44;96134.66;;;25.24;57.57
56807;BME280;42687;42.524;12.052;2022-08-18T05:35:13;96115.44;;;25.27;57.37
56807;BME280;42687;42.524;12.052;2022-08-18T05:40:15;96119.59;;;25.29;57.67
56807;BME280;42687;42.524;12.052;2022-08-18T05:42:40;96114.78;;;25.25;57.04
56807;BME280;42687;42.524;12.052;2022-08-18T05:45:08;96115.16;;;25.15;57.64
56807;BME280;42687;42.524;12.052;2022-08-18T05:47:35;96110.97;;;25.06;56.99
56807;BME280;42687;42.524;12.052;2022-08-18T05:50:06;96108.81;;;24.94;57.04
56807;BME280;42687;42.524;12.052;2022-08-18T05:55:14;96094.34;;;24.67;58.39
56807;BME280;42687;42.524;12.052;2022-08-18T05:58:42;96099.91;;;24.66;58.47
56807;BME280;42687;42.524;12.052;2022-08-18T06:00:51;96093.16;;;24.76;58.14
56807;BME280;42687;42.524;12.052;2022-08-18T06:03:20;96078.84;;;24.97;58.30
56807;BME280;42687;42.524;12.052;2022-08-18T06:08:19;96083.78;;;25.64;57.40
56807;BME280;42687;42.524;12.052;2022-08-18T06:10:47;96068.38;;;26.00;56.69
56807;BME280;42687;42.524;12.052;2022-08-18T06:13:13;96075.91;;;26.44;56.82
56807;BME280;42687;42.524;12.052;2022-08-18T06:15:43;96073.47;;;26.83;56.42
56807;BME280;42687;42.524;12.052;2022-08-18T06:20:44;96067.09;;;27.56;55.49
56807;BME280;42687;42.524;12.052;2022-08-18T06:23:24;96059.19;;;28.00;54.97
56807;BME280;42687;42.524;12.052;2022-08-18T06:28:22;96068.38;;;28.88;52.79
56807;BME280;42687;42.524;12.052;2022-08-18T06:30:50;96065.31;;;29.28;51.98
56807;BME280;42687;42.524;12.052;2022-08-18T06:35:47;96074.66;;;29.88;50.21
56807;BME280;42687;42.524;12.052;2022-08-18T06:41:12;96084.34;;;30.38;49.88
56807;BME280;42687;42.524;12.052;2022-08-18T06:43:44;96102.25;;;30.58;49.58
56807;BME280;42687;42.524;12.052;2022-08-18T06:46:16;96103.06;;;30.58;49.92
56807;BME280;42687;42.524;12.052;2022-08-18T06:48:55;96098.69;;;30.46;50.04
56807;BME280;42687;42.524;12.052;2022-08-18T06:51:25;96117.69;;;30.46;50.15
56807;BME280;42687;42.524;12.052;2022-08-18T06:53:53;96108.03;;;30.61;49.76
56807;BME280;42687;42.524;12.052;2022-08-18T06:56:27;96098.38;;;30.66;49.68
56807;BME280;42687;42.524;12.052;2022-08-18T06:59:12;96085.16;;;30.57;49.44
56807;BME280;42687;42.524;12.052;2022-08-18T07:01:38;96090.59;;;30.57;49.30
56807;BME280;42687;42.524;12.052;2022-08-18T07:04:04;96079.38;;;30.54;49.27
56807;BME280;42687;42.524;12.052;2022-08-18T07:06:30;96086.72;;;30.65;48.40
56807;BME280;42687;42.524;12.052;2022-08-18T07:09:16;96084.00;;;30.77;48.52
56807;BME280;42687;42.524;12.052;2022-08-18T07:11:42;96087.53;;;30.77;48.24
56807;BME280;42687;42.524;12.052;2022-08-18T07:14:23;96091.03;;;30.54;48.70
56807;BME280;42687;42.524;12.052;2022-08-18T07:16:50;96093.75;;;30.24;48.39
56807;BME280;42687;42.524;12.052;2022-08-18T07:19:30;96099.16;;;30.12;48.43
56807;BME280;42687;42.524;12.052;2022-08-18T07:22:00;96106.34;;;30.49;46.74
56807;BME280;42687;42.524;12.052;2022-08-18T07:24:27;96103.22;;;30.75;45.07
56807;BME280;42687;42.524;12.052;2022-08-18T07:27:01;96101.00;;;30.84;44.06
56807;BME280;42687;42.524;12.052;2022-08-18T07:29:28;96105.84;;;30.94;43.09
56807;BME280;42687;42.524;12.052;2022-08-18T07:31:54;96102.81;;;31.14;41.59
56807;BME280;42687;42.524;12.052;2022-08-18T07:34:24;96109.53;;;31.35;40.06
56807;BME280;42687;42.524;12.052;2022-08-18T07:39:29;96101.75;;;31.15;38.56
56807;BME280;42687;42.524;12.052;2022-08-18T07:44:45;96068.00;;;31.11;35.17
56807;BME280;42687;42.524;12.052;2022-08-18T07:49:39;96064.06;;;30.95;35.62
56807;BME280;42687;42.524;12.052;2022-08-18T07:52:19;96090.16;;;30.96;35.33
56807;BME280;42687;42.524;12.052;2022-08-18T07:54:51;96094.88;;;31.01;35.36
56807;BME280;42687;42.524;12.052;2022-08-18T07:57:32;96094.78;;;31.07;35.17
56807;BME280;42687;42.524;12.052;2022-08-18T08:05:47;96124.31;;;31.16;34.98
56807;BME280;42687;42.524;12.052;2022-08-18T08:08:18;96112.03;;;31.13;34.84
56807;BME280;42687;42.524;12.052;2022-08-18T08:19:02;96193.19;;;31.03;34.52
56807;BME280;42687;42.524;12.052;2022-08-18T08:21:27;96202.59;;;30.88;34.70
56807;BME280;42687;42.524;12.052;2022-08-18T08:28:57;96244.38;;;30.20;35.93
56807;BME280;42687;42.524;12.052;2022-08-18T08:37:14;96295.41;;;29.86;36.70
56807;BME280;42687;42.524;12.052;2022-08-18T08:42:10;96319.59;;;29.87;37.15
56807;BME280;42687;42.524;12.052;2022-08-18T08:44:38;96351.31;;;30.05;36.96
56807;BME280;42687;42.524;12.052;2022-08-18T08:47:08;96362.31;;;30.10;37.77
56807;BME280;42687;42.524;12.052;2022-08-18T08:49:39;96365.59;;;29.94;38.97
56807;BME280;42687;42.524;12.052;2022-08-18T08:52:26;96355.94;;;29.48;40.96
56807;BME280;42687;42.524;12.052;2022-08-18T09:00:33;96388.22;;;28.45;40.59
56807;BME280;42687;42.524;12.052;2022-08-18T09:05:27;96285.53;;;28.18;41.40
56807;BME280;42687;42.524;12.052;2022-08-18T09:10:39;96268.94;;;27.88;42.07
56807;BME280;42687;42.524;12.052;2022-08-18T09:16:11;96312.16;;;27.94;42.46
56807;BME280;42687;42.524;12.052;2022-08-18T09:18:58;96294.28;;;28.13;42.10
56807;BME280;42687;42.524;12.052;2022-08-18T09:21:52;96308.75;;;28.39;42.26
56807;BME280;42687;42.524;12.052;2022-08-18T09:24:21;96359.84;;;28.74;41.63
56807;BME280;42687;42.524;12.052;2022-08-18T09:34:55;96371.19;;;30.43;41.10
56807;BME280;42687;42.524;12.052;2022-08-18T09:37:27;96360.91;;;31.01;40.57
56807;BME280;42687;42.524;12.052;2022-08-18T09:40:13;96371.47;;;31.27;39.96
56807;BME280;42687;42.524;12.052;2022-08-18T09:43:06;96368.97;;;31.26;40.59
56807;BME280;42687;42.524;12.052;2022-08-18T09:45:51;96362.75;;;31.37;40.57
56807;BME280;42687;42.524;12.052;2022-08-18T09:48:37;96341.94;;;31.62;40.98
56807;BME280;42687;42.524;12.052;2022-08-18T09:56:14;96354.63;;;32.51;40.56
56807;BME280;42687;42.524;12.052;2022-08-18T09:58:47;96344.69;;;32.97;39.84
56807;BME280;42687;42.524;12.052;2022-08-18T10:06:30;96345.44;;;33.67;39.70
56807;BME280;42687;42.524;12.052;2022-08-18T10:09:00;96323.41;;;33.86;39.45
56807;BME280;42687;42.524;12.052;2022-08-18T10:11:30;96316.97;;;33.75;39.20
56807;BME280;42687;42.524;12.052;2022-08-18T10:16:35;96342.50;;;32.70;39.94
56807;BME280;42687;42.524;12.052;2022-08-18T10:27:08;96328.41;;;32.33;41.01
56807;BME280;42687;42.524;12.052;2022-08-18T10:34:48;96294.91;;;31.61;42.91
56807;BME280;42687;42.524;12.052;2022-08-18T10:39:44;96290.78;;;32.06;42.97
56807;BME280;42687;42.524;12.052;2022-08-18T10:42:13;96299.84;;;32.59;42.61
56807;BME280;42687;42.524;12.052;2022-08-18T10:44:45;96297.88;;;33.12;42.37
56807;BME280;42687;42.524;12.052;2022-08-18T10:47:22;96306.97;;;33.47;42.23
56807;BME280;42687;42.524;12.052;2022-08-18T10:49:48;96306.53;;;34.06;42.11
56807;BME280;42687;42.524;12.052;2022-08-18T10:55:02;96341.66;;;34.36;42.23
56807;BME280;42687;42.524;12.052;2022-08-18T11:00:03;96312.00;;;33.55;43.40
56807;BME280;42687;42.524;12.052;2022-08-18T11:05:03;96304.00;;;33.48;43.59
56807;BME280;42687;42.524;12.052;2022-08-18T11:07:29;96311.31;;;33.31;44.21
56807;BME280;42687;42.524;12.052;2022-08-18T11:09:56;96318.25;;;33.09;44.43
56807;BME280;42687;42.524;12.052;2022-08-18T11:15:37;96302.09;;;32.50;45.26
56807;BME280;42687;42.524;12.052;2022-08-18T11:24:00;96295.63;;;32.04;46.02
56807;BME280;42687;42.524;12.052;2022-08-18T11:26:28;96228.97;;;31.89;45.78
56807;BME280;42687;42.524;12.052;2022-08-18T11:28:54;96280.19;;;32.57;45.31
56807;BME280;42687;42.524;12.052;2022-08-18T11:31:20;96258.63;;;32.67;45.08
56807;BME280;42687;42.524;12.052;2022-08-18T11:33:46;96235.09;;;32.61;45.46
56807;BME280;42687;42.524;12.052;2022-08-18T11:36:12;96230.50;;;32.62;45.59
56807;BME280;42687;42.524;12.052;2022-08-18T11:38:52;96229.13;;;32.47;45.85
56807;BME280;42687;42.524;12.052;2022-08-18T11:41:23;96228.59;;;32.21;46.23
56807;BME280;42687;42.524;12.052;2022-08-18T11:43:54;96234.88;;;31.98;46.76
56807;BME280;42687;42.524;12.052;2022-08-18T11:48:50;96237.56;;;31.51;47.64
56807;BME280;42687;42.524;12.052;2022-08-18T11:51:19;96234.50;;;31.47;47.81
56807;BME280;42687;42.524;12.052;2022-08-18T11:56:20;96168.00;;;31.85;46.85
56807;BME280;42687;42.524;12.052;2022-08-18T12:11:47;96189.78;;;32.26;46.46
56807;BME280;42687;42.524;12.052;2022-08-18T12:14:17;96200.97;;;32.41;46.38
56807;BME280;42687;42.524;12.052;2022-08-18T12:16:43;96200.13;;;32.82;46.02
56807;BME280;42687;42.524;12.052;2022-08-18T12:19:11;96206.25;;;33.06;45.55
56807;BME280;42687;42.524;12.052;2022-08-18T12:21:38;96206.75;;;33.03;45.30
56807;BME280;42687;42.524;12.052;2022-08-18T12:24:16;96207.22;;;33.00;45.18
56807;BME280;42687;42.524;12.052;2022-08-18T12:26:45;96195.03;;;33.19;44.60
56807;BME280;42687;42.524;12.052;2022-08-18T12:29:11;96209.75;;;33.52;44.13
56807;BME280;42687;42.524;12.052;2022-08-18T12:31:37;96207.44;;;33.61;43.81
56807;BME280;42687;42.524;12.052;2022-08-18T12:34:03;96218.66;;;33.65;43.78
56807;BME280;42687;42.524;12.052;2022-08-18T12:36:29;96232.19;;;33.76;43.76
56807;BME280;42687;42.524;12.052;2022-08-18T12:38:57;96230.41;;;33.82;43.53
56807;BME280;42687;42.524;12.052;2022-08-18T12:41:23;96229.47;;;33.76;43.64
56807;BME280;42687;42.524;12.052;2022-08-18T12:43:48;96223.03;;;33.49;43.96
56807;BME280;42687;42.524;12.052;2022-08-18T12:46:16;96230.16;;;33.50;43.16
56807;BME280;42687;42.524;12.052;2022-08-18T12:48:43;96226.53;;;33.27;43.51
56807;BME280;42687;42.524;12.052;2022-08-18T12:51:09;96204.50;;;33.00;43.92
56807;BME280;42687;42.524;12.052;2022-08-18T12:53:37;96197.66;;;32.80;44.07
56807;BME280;42687;42.524;12.052;2022-08-18T12:56:05;96200.97;;;32.70;44.04
56807;BME280;42687;42.524;12.052;2022-08-18T12:58:32;96199.53;;;32.80;43.82
56807;BME280;42687;42.524;12.052;2022-08-18T13:00:57;96195.97;;;32.50;44.61
56807;BME280;42687;42.524;12.052;2022-08-18T13:03:23;96191.50;;;32.44;44.55
56807;BME280;42687;42.524;12.052;2022-08-18T13:05:49;96173.81;;;32.58;44.71
56807;BME280;42687;42.524;12.052;2022-08-18T13:08:19;96192.00;;;32.99;44.33
56807;BME280;42687;42.524;12.052;2022-08-18T13:10:50;96184.59;;;33.28;44.19
56807;BME280;42687;42.524;12.052;2022-08-18T13:13:17;96202.34;;;33.48;44.00
56807;BME280;42687;42.524;12.052;2022-08-18T13:15:46;96204.28;;;33.18;44.08
56807;BME280;42687;42.524;12.052;2022-08-18T13:18:12;96204.09;;;32.91;44.48
56807;BME280;42687;42.524;12.052;2022-08-18T13:20:40;96189.41;;;32.92;44.53
56807;BME280;42687;42.524;12.052;2022-08-18T13:23:06;96187.94;;;33.01;44.02
56807;BME280;42687;42.524;12.052;2022-08-18T13:25:34;96192.72;;;32.94;44.26
56807;BME280;42687;42.524;12.052;2022-08-18T13:27:59;96199.66;;;33.19;44.06
56807;BME280;42687;42.524;12.052;2022-08-18T13:30:25;96204.97;;;33.42;43.78
56807;BME280;42687;42.524;12.052;2022-08-18T13:32:51;96187.94;;;33.18;44.07
56807;BME280;42687;42.524;12.052;2022-08-18T13:35:16;96223.59;;;33.17;44.03
56807;BME280;42687;42.524;12.052;2022-08-18T13:37:42;96227.28;;;32.93;44.33
56807;BME280;42687;42.524;12.052;2022-08-18T13:40:10;96230.00;;;32.65;44.49
56807;BME280;42687;42.524;12.052;2022-08-18T13:42:44;96216.28;;;32.59;44.24
56807;BME280;42687;42.524;12.052;2022-08-18T13:45:15;96200.69;;;32.84;44.10
56807;BME280;42687;42.524;12.052;2022-08-18T13:47:45;96199.31;;;32.98;43.95
56807;BME280;42687;42.524;12.052;2022-08-18T13:50:11;96194.38;;;32.66;44.31
56807;BME280;42687;42.524;12.052;2022-08-18T13:52:39;96197.72;;;32.28;45.12
56807;BME280;42687;42.524;12.052;2022-08-18T13:55:05;96191.03;;;31.94;45.52
56807;BME280;42687;42.524;12.052;2022-08-18T13:57:32;96192.03;;;31.65;46.10
56807;BME280;42687;42.524;12.052;2022-08-18T13:59:58;96203.44;;;31.43;46.75
56807;BME280;42687;42.524;12.052;2022-08-18T14:02:23;96195.88;;;31.21;47.22
56807;BME280;42687;42.524;12.052;2022-08-18T14:04:49;96167.34;;;31.00;47.39
56807;BME280;42687;42.524;12.052;2022-08-18T14:07:15;96159.66;;;30.85;48.41
56807;BME280;42687;42.524;12.052;2022-08-18T14:09:43;96139.81;;;30.85;48.36
56807;BME280;42687;42.524;12.052;2022-08-18T14:12:16;96119.88;;;30.91;48.27
56807;BME280;42687;42.524;12.052;2022-08-18T14:14:43;96138.84;;;31.21;48.65
56807;BME280;42687;42.524;12.052;2022-08-18T14:17:09;96146.97;;;31.33;48.59
56807;BME280;42687;42.524;12.052;2022-08-18T14:19:35;96129.50;;;31.17;49.42
56807;BME280;42687;42.524;12.052;2022-08-18T14:22:18;96088.25;;;30.85;50.29
56807;BME280;42687;42.524;12.052;2022-08-18T14:25:03;96133.41;;;30.67;50.19
56807;BME280;42687;42.524;12.052;2022-08-18T14:27:46;96179.69;;;30.72;50.58
56807;BME280;42687;42.524;12.052;2022-08-18T14:30:12;96149.69;;;30.67;51.04
56807;BME280;42687;42.524;12.052;2022-08-18T14:32:39;96120.88;;;30.54;51.54
56807;BME280;42687;42.524;12.052;2022-08-18T14:35:07;96121.34;;;30.51;51.56
56807;BME280;42687;42.524;12.052;2022-08-18T14:37:33;96118.16;;;30.54;51.72
56807;BME280;42687;42.524;12.052;2022-08-18T14:39:59;96121.50;;;30.68;51.64
56807;BME280;42687;42.524;12.052;2022-08-18T14:42:25;96123.09;;;30.88;51.52
56807;BME280;42687;42.524;12.052;2022-08-18T14:44:51;96112.94;;;30.95;51.73
56807;BME280;42687;42.524;12.052;2022-08-18T14:47:17;96121.63;;;30.73;52.30
56807;BME280;42687;42.524;12.052;2022-08-18T14:49:44;96135.63;;;30.47;52.45
56807;BME280;42687;42.524;12.052;2022-08-18T14:52:11;96144.88;;;30.39;52.67
56807;BME280;42687;42.524;12.052;2022-08-18T14:54:38;96147.38;;;30.22;53.69
56807;BME280;42687;42.524;12.052;2022-08-18T14:57:04;96140.69;;;30.24;53.80
56807;BME280;42687;42.524;12.052;2022-08-18T14:59:36;96115.72;;;30.34;53.97
56807;BME280;42687;42.524;12.052;2022-08-18T15:02:05;96128.09;;;30.30;53.86
56807;BME280;42687;42.524;12.052;2022-08-18T15:04:31;96154.19;;;30.13;54.51
56807;BME280;42687;42.524;12.052;2022-08-18T15:06:57;96148.44;;;29.84;54.90
56807;BME280;42687;42.524;12.052;2022-08-18T15:09:24;96129.72;;;29.64;55.54
56807;BME280;42687;42.524;12.052;2022-08-18T15:11:49;96120.00;;;29.56;55.55
56807;BME280;42687;42.524;12.052;2022-08-18T15:14:16;96156.78;;;29.45;55.71
56807;BME280;42687;42.524;12.052;2022-08-18T15:16:42;96170.69;;;29.30;56.49
56807;BME280;42687;42.524;12.052;2022-08-18T15:19:07;96171.88;;;29.09;57.12